sensor_id;sensor_type;location;lat;lon;timestamp;temperature;humidity
40676;DHT22;26359;48.750;9.314;2022-08-19T00:01:38;21.30;99.90
40676;DHT22;26359;48.750;9.314;2022-08-19T00:04:07;21.30;99.90
40676;DHT22;26359;48.750;9.314;2022-08-19T00:06:34;21.30;99.90
40676;DHT22;26359;48.750;9.314;2022-08-19T00:09:01;21.30;99.90
40676;DHT22;26359;48.750;9.314;2022-08-19T00:11:29;21.20;99.90
40676;DHT22;26359;48.750;9.314;2022-08-19T00:13:55;21.20;99.90
40676;DHT22;26359;48.750;9.314;2022-08-19T00:16:22;21.10;99.90
40676;DHT22;26359;48.750;9.314;2022-08-19T00:18:48;21.10;99.90
40676;DHT22;26359;48.750;9.314;2022-08-19T00:21:14;21.00;99.90
40676;DHT22;26359;48.750;9.314;2022-08-19T00:23:40;21.00;99.90
40676;DHT22;26359;48.750;9.314;2022-08-19T00:26:06;21.00;99.90
40676;DHT22;26359;48.750;9.314;2022-08-19T00:28:33;20.90;99.90
40676;DHT22;26359;48.750;9.314;2022-08-19T00:31:02;20.90;99.90
40676;DHT22;26359;48.750;9.314;2022-08-19T00:33:28;20.90;99.90
40676;DHT22;26359;48.750;9.314;2022-08-19T00:35:58;20.90;99.90
40676;DHT22;26359;48.750;9.314;2022-08-19T00:38:24;20.90;99.90
40676;DHT22;26359;48.750;9.314;2022-08-19T00:40:49;20.90;99.90
40676;DHT22;26359;48.750;9.314;2022-08-19T00:43:19;20.90;99.90
40676;DHT22;26359;48.750;9.314;2022-08-19T00:45:45;20.80;99.90
40676;DHT22;26359;48.750;9.314;2022-08-19T00:48:11;20.80;99.90
40676;DHT22;26359;48.750;9.314;2022-08-19T00:50:39;20.80;99.90
40676;DHT22;26359;48.750;9.314;2022-08-19T00:53:06;20.80;99.90
40676;DHT22;26359;48.750;9.314;2022-08-19T00:55:32;20.80;99.90
40676;DHT22;26359;48.750;9.314;2022-08-19T00:58:02;20.80;99.90
40676;DHT22;26359;48.750;9.314;2022-08-19T01:00:30;20.70;99.90
40676;DHT22;26359;48.750;9.314;2022-08-19T01:02:56;20.80;99.90
40676;DHT22;26359;48.750;9.314;2022-08-19T01:05:25;20.80;99.90
40676;DHT22;26359;48.750;9.314;2022-08-19T01:07:53;20.70;99.90
40676;DHT22;26359;48.750;9.314;2022-08-19T01:10:22;20.70;99.90
40676;DHT22;26359;48.750;9.314;2022-08-19T01:12:49;20.80;99.90
40676;DHT22;26359;48.750;9.314;2022-08-19T01:15:20;20.80;99.90
40676;DHT22;26359;48.750;9.314;2022-08-19T01:17:46;20.80;99.90
40676;DHT22;26359;48.750;9.314;2022-08-19T01:20:17;20.80;99.90
40676;DHT22;26359;48.750;9.314;2022-08-19T01:25:09;20.80;99.90
40676;DHT22;26359;48.750;9.314;2022-08-19T01:27:39;20.80;99.90
40676;DHT22;26359;48.750;9.314;2022-08-19T01:30:07;20.80;99.90
40676;DHT22;26359;48.750;9.314;2022-08-19T01:32:33;20.80;99.90
40676;DHT22;26359;48.750;9.314;2022-08-19T01:34:58;20.80;99.90
40676;DHT22;26359;48.750;9.314;2022-08-19T01:37:26;20.80;99.90
40676;DHT22;26359;48.750;9.314;2022-08-19T01:39:52;20.70;99.90
40676;DHT22;26359;48.750;9.314;2022-08-19T01:42:18;20.70;99.90
40676;DHT22;26359;48.750;9.314;2022-08-19T01:44:45;20.80;99.90
40676;DHT22;26359;48.750;9.314;2022-08-19T01:47:11;20.70;99.90
40676;DHT22;26359;48.750;9.314;2022-08-19T01:49:37;20.70;99.90
40676;DHT22;26359;48.750;9.314;2022-08-19T01:52:04;20.70;99.90
40676;DHT22;26359;48.750;9.314;2022-08-19T01:54:30;20.70;99.90
40676;DHT22;26359;48.750;9.314;2022-08-19T01:57:01;20.70;99.90
40676;DHT22;26359;48.750;9.314;2022-08-19T01:59:29;20.70;99.90
40676;DHT22;26359;48.750;9.314;2022-08-19T02:01:55;20.70;99.90
40676;DHT22;26359;48.750;9.314;2022-08-19T02:04:20;20.70;99.90
40676;DHT22;26359;48.750;9.314;2022-08-19T02:06:46;20.70;99.90
40676;DHT22;26359;48.750;9.314;2022-08-19T02:09:13;20.70;99.90
40676;DHT22;26359;48.750;9.314;2022-08-19T02:11:39;20.70;99.90
40676;DHT22;26359;48.750;9.314;2022-08-19T02:14:06;20.60;99.90
40676;DHT22;26359;48.750;9.314;2022-08-19T02:16:32;20.70;99.90
40676;DHT22;26359;48.750;9.314;2022-08-19T02:18:58;20.60;99.90
40676;DHT22;26359;48.750;9.314;2022-08-19T02:21:27;20.60;99.90
40676;DHT22;26359;48.750;9.314;2022-08-19T02:23:53;20.60;99.90
40676;DHT22;26359;48.750;9.314;2022-08-19T02:26:19;20.60;99.90
40676;DHT22;26359;48.750;9.314;2022-08-19T02:28:45;20.60;99.90
40676;DHT22;26359;48.750;9.314;2022-08-19T02:31:13;20.60;99.90
40676;DHT22;26359;48.750;9.314;2022-08-19T02:33:43;20.60;99.90
40676;DHT22;26359;48.750;9.314;2022-08-19T02:36:11;20.60;99.90
40676;DHT22;26359;48.750;9.314;2022-08-19T02:38:37;20.60;99.90
40676;DHT22;26359;48.750;9.314;2022-08-19T02:41:12;20.60;99.90
40676;DHT22;26359;48.750;9.314;2022-08-19T02:43:39;20.50;99.90
40676;DHT22;26359;48.750;9.314;2022-08-19T02:46:20;20.50;99.90
40676;DHT22;26359;48.750;9.314;2022-08-19T02:48:55;20.50;99.90
40676;DHT22;26359;48.750;9.314;2022-08-19T02:51:24;20.50;99.90
40676;DHT22;26359;48.750;9.314;2022-08-19T02:53:50;20.50;99.90
40676;DHT22;26359;48.750;9.314;2022-08-19T02:56:16;20.40;99.90
40676;DHT22;26359;48.750;9.314;2022-08-19T02:58:42;20.40;99.90
40676;DHT22;26359;48.750;9.314;2022-08-19T03:01:09;20.40;99.90
40676;DHT22;26359;48.750;9.314;2022-08-19T03:03:36;20.30;99.90
40676;DHT22;26359;48.750;9.314;2022-08-19T03:06:11;20.30;99.90
40676;DHT22;26359;48.750;9.314;2022-08-19T03:08:42;20.30;99.90
40676;DHT22;26359;48.750;9.314;2022-08-19T03:11:16;20.30;99.90
40676;DHT22;26359;48.750;9.314;2022-08-19T03:13:42;20.20;99.90
40676;DHT22;26359;48.750;9.314;2022-08-19T03:16:09;20.20;99.90
40676;DHT22;26359;48.750;9.314;2022-08-19T03:18:35;20.30;99.90
40676;DHT22;26359;48.750;9.314;2022-08-19T03:21:00;20.20;99.90
40676;DHT22;26359;48.750;9.314;2022-08-19T03:23:26;20.20;99.90
40676;DHT22;26359;48.750;9.314;2022-08-19T03:25:53;20.20;99.90
40676;DHT22;26359;48.750;9.314;2022-08-19T03:28:19;20.20;99.90
40676;DHT22;26359;48.750;9.314;2022-08-19T03:30:58;20.10;99.90
40676;DHT22;26359;48.750;9.314;2022-08-19T03:33:24;20.10;99.90
40676;DHT22;26359;48.750;9.314;2022-08-19T03:36:08;20.10;99.90
40676;DHT22;26359;48.750;9.314;2022-08-19T03:38:40;20.10;99.90
40676;DHT22;26359;48.750;9.314;2022-08-19T03:41:09;20.10;99.90
40676;DHT22;26359;48.750;9.314;2022-08-19T03:43:37;20.10;99.90
40676;DHT22;26359;48.750;9.314;2022-08-19T03:46:06;20.00;99.90
40676;DHT22;26359;48.750;9.314;2022-08-19T03:48:33;20.10;99.90
40676;DHT22;26359;48.750;9.314;2022-08-19T03:50:59;20.00;99.90
40676;DHT22;26359;48.750;9.314;2022-08-19T03:53:26;20.10;99.90
40676;DHT22;26359;48.750;9.314;2022-08-19T03:55:53;20.00;99.90
40676;DHT22;26359;48.750;9.314;2022-08-19T03:58:19;20.10;99.90
40676;DHT22;26359;48.750;9.314;2022-08-19T04:00:45;20.00;99.90
40676;DHT22;26359;48.750;9.314;2022-08-19T04:03:10;20.00;99.90
40676;DHT22;26359;48.750;9.314;2022-08-19T04:05:36;20.10;99.90
40676;DHT22;26359;48.750;9.314;2022-08-19T04:08:03;20.00;99.90
40676;DHT22;26359;48.750;9.314;2022-08-19T04:10:34;20.00;99.90
40676;DHT22;26359;48.750;9.314;2022-08-19T04:13:00;20.00;99.90
40676;DHT22;26359;48.750;9.314;2022-08-19T04:15:26;20.00;99.90
40676;DHT22;26359;48.750;9.314;2022-08-19T04:17:52;20.00;99.90
40676;DHT22;26359;48.750;9.314;2022-08-19T04:20:18;20.00;99.90
40676;DHT22;26359;48.750;9.314;2022-08-19T04:22:43;20.00;99.90
40676;DHT22;26359;48.750;9.314;2022-08-19T04:25:09;20.00;99.90
40676;DHT22;26359;48.750;9.314;2022-08-19T04:27:35;19.90;99.90
40676;DHT22;26359;48.750;9.314;2022-08-19T04:30:01;19.90;99.90
40676;DHT22;26359;48.750;9.314;2022-08-19T04:32:26;19.90;99.90
40676;DHT22;26359;48.750;9.314;2022-08-19T04:34:52;20.00;99.90
40676;DHT22;26359;48.750;9.314;2022-08-19T04:37:21;20.00;99.90
40676;DHT22;26359;48.750;9.314;2022-08-19T04:39:48;19.90;99.90
40676;DHT22;26359;48.750;9.314;2022-08-19T04:42:32;19.90;99.90
40676;DHT22;26359;48.750;9.314;2022-08-19T04:45:10;19.90;99.90
40676;DHT22;26359;48.750;9.314;2022-08-19T04:47:37;19.90;99.90
40676;DHT22;26359;48.750;9.314;2022-08-19T04:50:03;19.90;99.90
40676;DHT22;26359;48.750;9.314;2022-08-19T04:52:29;19.80;99.90
40676;DHT22;26359;48.750;9.314;2022-08-19T04:54:57;19.80;99.90
40676;DHT22;26359;48.750;9.314;2022-08-19T04:57:22;19.70;99.90
40676;DHT22;26359;48.750;9.314;2022-08-19T04:59:48;19.70;99.90
40676;DHT22;26359;48.750;9.314;2022-08-19T05:02:14;19.70;99.90
40676;DHT22;26359;48.750;9.314;2022-08-19T05:04:40;19.80;99.90
40676;DHT22;26359;48.750;9.314;2022-08-19T05:07:07;19.70;99.90
40676;DHT22;26359;48.750;9.314;2022-08-19T05:09:34;19.80;99.90
40676;DHT22;26359;48.750;9.314;2022-08-19T05:11:59;19.70;99.90
40676;DHT22;26359;48.750;9.314;2022-08-19T05:14:25;19.70;99.90
40676;DHT22;26359;48.750;9.314;2022-08-19T05:16:51;19.70;99.90
40676;DHT22;26359;48.750;9.314;2022-08-19T05:19:16;19.80;99.90
40676;DHT22;26359;48.750;9.314;2022-08-19T05:22:00;19.80;99.90
40676;DHT22;26359;48.750;9.314;2022-08-19T05:24:44;19.80;99.90
40676;DHT22;26359;48.750;9.314;2022-08-19T05:27:10;19.80;99.90
40676;DHT22;26359;48.750;9.314;2022-08-19T05:29:36;19.80;99.90
40676;DHT22;26359;48.750;9.314;2022-08-19T05:32:03;19.80;99.90
40676;DHT22;26359;48.750;9.314;2022-08-19T05:34:30;19.90;99.90
40676;DHT22;26359;48.750;9.314;2022-08-19T05:36:58;19.80;99.90
40676;DHT22;26359;48.750;9.314;2022-08-19T05:39:26;19.80;99.90
40676;DHT22;26359;48.750;9.314;2022-08-19T05:41:56;19.80;99.90
40676;DHT22;26359;48.750;9.314;2022-08-19T05:44:24;19.80;99.90
40676;DHT22;26359;48.750;9.314;2022-08-19T05:46:50;19.80;99.90
40676;DHT22;26359;48.750;9.314;2022-08-19T05:49:19;19.80;99.90
40676;DHT22;26359;48.750;9.314;2022-08-19T05:51:45;19.90;99.90
40676;DHT22;26359;48.750;9.314;2022-08-19T05:54:11;19.90;99.90
40676;DHT22;26359;48.750;9.314;2022-08-19T05:56:39;19.80;99.90
40676;DHT22;26359;48.750;9.314;2022-08-19T05:59:07;19.90;99.90
40676;DHT22;26359;48.750;9.314;2022-08-19T06:01:39;19.80;99.90
40676;DHT22;26359;48.750;9.314;2022-08-19T06:04:05;19.80;99.90
40676;DHT22;26359;48.750;9.314;2022-08-19T06:06:32;19.80;99.90
40676;DHT22;26359;48.750;9.314;2022-08-19T06:09:00;19.80;99.90
40676;DHT22;26359;48.750;9.314;2022-08-19T06:11:41;19.80;99.90
40676;DHT22;26359;48.750;9.314;2022-08-19T06:14:11;19.80;99.90
40676;DHT22;26359;48.750;9.314;2022-08-19T06:16:41;19.80;99.90
40676;DHT22;26359;48.750;9.314;2022-08-19T06:19:12;19.80;99.90
40676;DHT22;26359;48.750;9.314;2022-08-19T06:21:39;19.80;99.90
40676;DHT22;26359;48.750;9.314;2022-08-19T06:24:07;19.80;99.90
40676;DHT22;26359;48.750;9.314;2022-08-19T06:26:35;19.80;99.90
40676;DHT22;26359;48.750;9.314;2022-08-19T06:29:02;19.80;99.90
40676;DHT22;26359;48.750;9.314;2022-08-19T06:31:29;19.80;99.90
40676;DHT22;26359;48.750;9.314;2022-08-19T06:33:54;19.80;99.90
40676;DHT22;26359;48.750;9.314;2022-08-19T06:36:26;19.80;99.90
40676;DHT22;26359;48.750;9.314;2022-08-19T06:39:01;19.80;99.90
40676;DHT22;26359;48.750;9.314;2022-08-19T06:41:28;19.80;99.90
40676;DHT22;26359;48.750;9.314;2022-08-19T06:43:54;19.80;99.90
40676;DHT22;26359;48.750;9.314;2022-08-19T06:46:20;19.80;99.90
40676;DHT22;26359;48.750;9.314;2022-08-19T06:48:46;19.80;99.90
40676;DHT22;26359;48.750;9.314;2022-08-19T06:51:14;19.80;99.90
40676;DHT22;26359;48.750;9.314;2022-08-19T06:53:41;19.80;99.90
40676;DHT22;26359;48.750;9.314;2022-08-19T06:56:13;19.80;99.90
40676;DHT22;26359;48.750;9.314;2022-08-19T06:58:38;19.80;99.90
40676;DHT22;26359;48.750;9.314;2022-08-19T07:01:04;19.80;99.90
40676;DHT22;26359;48.750;9.314;2022-08-19T07:03:35;19.80;99.90
40676;DHT22;26359;48.750;9.314;2022-08-19T07:06:09;19.80;99.90
40676;DHT22;26359;48.750;9.314;2022-08-19T07:08:37;19.80;99.90
40676;DHT22;26359;48.750;9.314;2022-08-19T07:11:09;19.70;99.90
40676;DHT22;26359;48.750;9.314;2022-08-19T07:13:36;19.70;99.90
40676;DHT22;26359;48.750;9.314;2022-08-19T07:16:04;19.70;99.90
40676;DHT22;26359;48.750;9.314;2022-08-19T07:18:31;19.70;99.90
40676;DHT22;26359;48.750;9.314;2022-08-19T07:21:23;19.60;99.90
40676;DHT22;26359;48.750;9.314;2022-08-19T07:23:50;19.60;99.90
40676;DHT22;26359;48.750;9.314;2022-08-19T07:26:29;19.50;99.90
40676;DHT22;26359;48.750;9.314;2022-08-19T07:28:56;19.50;99.90
40676;DHT22;26359;48.750;9.314;2022-08-19T07:31:24;19.50;99.90
40676;DHT22;26359;48.750;9.314;2022-08-19T07:33:52;19.40;99.90
40676;DHT22;26359;48.750;9.314;2022-08-19T07:36:22;19.40;99.90
40676;DHT22;26359;48.750;9.314;2022-08-19T07:38:49;19.40;99.90
40676;DHT22;26359;48.750;9.314;2022-08-19T07:41:19;19.40;99.90
40676;DHT22;26359;48.750;9.314;2022-08-19T07:43:46;19.40;99.90
40676;DHT22;26359;48.750;9.314;2022-08-19T07:46:12;19.50;99.90
40676;DHT22;26359;48.750;9.314;2022-08-19T07:48:41;19.40;99.90
40676;DHT22;26359;48.750;9.314;2022-08-19T07:51:08;19.50;99.90
40676;DHT22;26359;48.750;9.314;2022-08-19T07:53:35;19.40;99.90
40676;DHT22;26359;48.750;9.314;2022-08-19T07:56:02;19.40;99.90
40676;DHT22;26359;48.750;9.314;2022-08-19T07:58:35;19.40;99.90
40676;DHT22;26359;48.750;9.314;2022-08-19T08:01:03;19.40;99.90
40676;DHT22;26359;48.750;9.314;2022-08-19T08:03:29;19.50;99.90
40676;DHT22;26359;48.750;9.314;2022-08-19T08:06:15;19.50;99.90
40676;DHT22;26359;48.750;9.314;2022-08-19T08:09:03;19.50;99.90
40676;DHT22;26359;48.750;9.314;2022-08-19T08:11:44;19.40;99.90
40676;DHT22;26359;48.750;9.314;2022-08-19T08:14:22;19.40;99.90
40676;DHT22;26359;48.750;9.314;2022-08-19T08:16:49;19.40;99.90
40676;DHT22;26359;48.750;9.314;2022-08-19T08:19:17;19.30;99.90
40676;DHT22;26359;48.750;9.314;2022-08-19T08:21:42;19.40;99.90
40676;DHT22;26359;48.750;9.314;2022-08-19T08:24:08;19.40;99.90
40676;DHT22;26359;48.750;9.314;2022-08-19T08:26:34;19.40;99.90
40676;DHT22;26359;48.750;9.314;2022-08-19T08:29:00;19.50;99.90
40676;DHT22;26359;48.750;9.314;2022-08-19T08:31:25;19.50;99.90
40676;DHT22;26359;48.750;9.314;2022-08-19T08:33:51;19.40;99.90
40676;DHT22;26359;48.750;9.314;2022-08-19T08:36:17;19.40;99.90
40676;DHT22;26359;48.750;9.314;2022-08-19T08:38:43;19.40;99.90
40676;DHT22;26359;48.750;9.314;2022-08-19T08:43:46;19.50;99.90
40676;DHT22;26359;48.750;9.314;2022-08-19T08:46:30;19.50;99.90
40676;DHT22;26359;48.750;9.314;2022-08-19T08:51:36;19.60;99.90
40676;DHT22;26359;48.750;9.314;2022-08-19T08:54:10;19.60;99.90
40676;DHT22;26359;48.750;9.314;2022-08-19T08:56:39;19.70;99.90
40676;DHT22;26359;48.750;9.314;2022-08-19T08:59:09;19.70;99.90
40676;DHT22;26359;48.750;9.314;2022-08-19T09:01:36;19.70;99.90
40676;DHT22;26359;48.750;9.314;2022-08-19T09:04:06;19.70;99.90
40676;DHT22;26359;48.750;9.314;2022-08-19T09:06:53;19.70;99.90
40676;DHT22;26359;48.750;9.314;2022-08-19T09:09:34;19.70;99.90
40676;DHT22;26359;48.750;9.314;2022-08-19T09:14:54;19.70;99.90
40676;DHT22;26359;48.750;9.314;2022-08-19T09:17:24;19.70;99.90
40676;DHT22;26359;48.750;9.314;2022-08-19T09:20:04;19.70;99.90
40676;DHT22;26359;48.750;9.314;2022-08-19T09:22:32;19.70;99.90
40676;DHT22;26359;48.750;9.314;2022-08-19T09:24:58;19.70;99.90
40676;DHT22;26359;48.750;9.314;2022-08-19T09:27:25;19.70;99.90
40676;DHT22;26359;48.750;9.314;2022-08-19T09:29:52;19.70;99.90
40676;DHT22;26359;48.750;9.314;2022-08-19T09:32:20;19.80;99.90
40676;DHT22;26359;48.750;9.314;2022-08-19T09:34:46;19.80;99.90
40676;DHT22;26359;48.750;9.314;2022-08-19T09:37:12;19.70;99.90
40676;DHT22;26359;48.750;9.314;2022-08-19T09:39:38;19.70;99.90
40676;DHT22;26359;48.750;9.314;2022-08-19T09:42:06;19.80;99.90
40676;DHT22;26359;48.750;9.314;2022-08-19T09:44:37;19.70;99.90
40676;DHT22;26359;48.750;9.314;2022-08-19T09:47:03;19.80;99.90
40676;DHT22;26359;48.750;9.314;2022-08-19T09:49:28;19.80;99.90
40676;DHT22;26359;48.750;9.314;2022-08-19T09:51:54;19.80;99.90
40676;DHT22;26359;48.750;9.314;2022-08-19T09:54:21;19.80;99.90
40676;DHT22;26359;48.750;9.314;2022-08-19T09:56:47;19.80;99.90
40676;DHT22;26359;48.750;9.314;2022-08-19T09:59:13;19.90;99.90
40676;DHT22;26359;48.750;9.314;2022-08-19T10:01:39;19.90;99.90
40676;DHT22;26359;48.750;9.314;2022-08-19T10:04:04;19.90;99.90
40676;DHT22;26359;48.750;9.314;2022-08-19T10:06:35;19.90;99.90
40676;DHT22;26359;48.750;9.314;2022-08-19T10:09:01;19.90;99.90
40676;DHT22;26359;48.750;9.314;2022-08-19T10:11:29;19.90;99.90
40676;DHT22;26359;48.750;9.314;2022-08-19T10:13:55;19.90;99.90
40676;DHT22;26359;48.750;9.314;2022-08-19T10:16:23;19.90;99.90
40676;DHT22;26359;48.750;9.314;2022-08-19T10:18:49;19.90;99.90
40676;DHT22;26359;48.750;9.314;2022-08-19T10:21:27;19.90;99.90
40676;DHT22;26359;48.750;9.314;2022-08-19T10:23:56;20.00;99.90
40676;DHT22;26359;48.750;9.314;2022-08-19T10:26:26;19.90;99.90
40676;DHT22;26359;48.750;9.314;2022-08-19T10:28:52;19.90;99.90
40676;DHT22;26359;48.750;9.314;2022-08-19T10:31:29;20.00;99.90
40676;DHT22;26359;48.750;9.314;2022-08-19T10:33:55;19.90;99.90
40676;DHT22;26359;48.750;9.314;2022-08-19T10:36:33;19.90;99.90
40676;DHT22;26359;48.750;9.314;2022-08-19T10:39:09;20.00;99.90
40676;DHT22;26359;48.750;9.314;2022-08-19T10:41:37;20.00;99.90
40676;DHT22;26359;48.750;9.314;2022-08-19T10:44:08;19.90;99.90
40676;DHT22;26359;48.750;9.314;2022-08-19T10:46:38;19.90;99.90
40676;DHT22;26359;48.750;9.314;2022-08-19T10:49:08;19.90;99.90
40676;DHT22;26359;48.750;9.314;2022-08-19T10:51:34;20.00;99.90
40676;DHT22;26359;48.750;9.314;2022-08-19T10:54:18;19.90;99.90
40676;DHT22;26359;48.750;9.314;2022-08-19T10:56:44;19.90;99.90
40676;DHT22;26359;48.750;9.314;2022-08-19T10:59:26;19.90;99.90
40676;DHT22;26359;48.750;9.314;2022-08-19T11:01:54;19.90;99.90
40676;DHT22;26359;48.750;9.314;2022-08-19T11:04:23;19.90;99.90
40676;DHT22;26359;48.750;9.314;2022-08-19T11:06:49;19.80;99.90
40676;DHT22;26359;48.750;9.314;2022-08-19T11:09:19;19.80;99.90
40676;DHT22;26359;48.750;9.314;2022-08-19T11:11:46;19.80;99.90
40676;DHT22;26359;48.750;9.314;2022-08-19T11:14:16;19.80;99.90
40676;DHT22;26359;48.750;9.314;2022-08-19T11:16:45;19.80;99.90
40676;DHT22;26359;48.750;9.314;2022-08-19T11:19:11;19.80;99.90
40676;DHT22;26359;48.750;9.314;2022-08-19T11:21:42;19.70;99.90
40676;DHT22;26359;48.750;9.314;2022-08-19T11:24:14;19.70;99.90
40676;DHT22;26359;48.750;9.314;2022-08-19T11:26:41;19.70;99.90
40676;DHT22;26359;48.750;9.314;2022-08-19T11:29:08;19.70;99.90
40676;DHT22;26359;48.750;9.314;2022-08-19T11:31:39;19.70;99.90
40676;DHT22;26359;48.750;9.314;2022-08-19T11:34:07;19.70;99.90
40676;DHT22;26359;48.750;9.314;2022-08-19T11:36:34;19.60;99.90
40676;DHT22;26359;48.750;9.314;2022-08-19T11:39:03;19.60;99.90
40676;DHT22;26359;48.750;9.314;2022-08-19T11:41:29;19.60;99.90
40676;DHT22;26359;48.750;9.314;2022-08-19T11:43:55;19.60;99.90
40676;DHT22;26359;48.750;9.314;2022-08-19T11:46:23;19.70;99.90
40676;DHT22;26359;48.750;9.314;2022-08-19T11:48:49;19.70;99.90
40676;DHT22;26359;48.750;9.314;2022-08-19T11:51:19;19.80;99.90
40676;DHT22;26359;48.750;9.314;2022-08-19T11:53:45;19.80;99.90
40676;DHT22;26359;48.750;9.314;2022-08-19T11:56:11;19.80;99.90
40676;DHT22;26359;48.750;9.314;2022-08-19T11:58:36;19.80;99.90
40676;DHT22;26359;48.750;9.314;2022-08-19T12:01:08;19.80;99.90
40676;DHT22;26359;48.750;9.314;2022-08-19T12:03:34;19.80;99.90
40676;DHT22;26359;48.750;9.314;2022-08-19T12:06:08;19.70;99.90
40676;DHT22;26359;48.750;9.314;2022-08-19T12:08:35;19.70;99.90
40676;DHT22;26359;48.750;9.314;2022-08-19T12:11:01;19.70;99.90
40676;DHT22;26359;48.750;9.314;2022-08-19T12:13:30;19.60;99.90
40676;DHT22;26359;48.750;9.314;2022-08-19T12:15:56;19.70;99.90
40676;DHT22;26359;48.750;9.314;2022-08-19T12:18:22;19.70;99.90
40676;DHT22;26359;48.750;9.314;2022-08-19T12:20:50;19.70;99.90
40676;DHT22;26359;48.750;9.314;2022-08-19T12:23:16;19.70;99.90
40676;DHT22;26359;48.750;9.314;2022-08-19T12:25:45;19.70;99.90
40676;DHT22;26359;48.750;9.314;2022-08-19T12:28:23;19.70;99.90
40676;DHT22;26359;48.750;9.314;2022-08-19T12:30:50;19.80;99.90
40676;DHT22;26359;48.750;9.314;2022-08-19T12:33:17;19.80;99.90
40676;DHT22;26359;48.750;9.314;2022-08-19T12:35:44;19.80;99.90
40676;DHT22;26359;48.750;9.314;2022-08-19T12:38:11;19.70;99.90
40676;DHT22;26359;48.750;9.314;2022-08-19T12:40:37;19.70;99.90
40676;DHT22;26359;48.750;9.314;2022-08-19T12:43:05;19.70;99.90
40676;DHT22;26359;48.750;9.314;2022-08-19T12:45:31;19.80;99.90
40676;DHT22;26359;48.750;9.314;2022-08-19T12:47:56;19.90;99.90
40676;DHT22;26359;48.750;9.314;2022-08-19T12:50:22;19.80;99.90
40676;DHT22;26359;48.750;9.314;2022-08-19T12:52:48;19.80;99.90
40676;DHT22;26359;48.750;9.314;2022-08-19T12:55:14;19.80;99.90
40676;DHT22;26359;48.750;9.314;2022-08-19T12:57:40;19.80;99.90
40676;DHT22;26359;48.750;9.314;2022-08-19T13:00:07;19.80;99.90
40676;DHT22;26359;48.750;9.314;2022-08-19T13:02:36;19.80;99.90
40676;DHT22;26359;48.750;9.314;2022-08-19T13:05:03;19.70;99.90
40676;DHT22;26359;48.750;9.314;2022-08-19T13:07:29;19.70;99.90
40676;DHT22;26359;48.750;9.314;2022-08-19T13:09:55;19.70;99.90
40676;DHT22;26359;48.750;9.314;2022-08-19T13:12:21;19.80;99.90
40676;DHT22;26359;48.750;9.314;2022-08-19T13:14:46;19.70;99.90
40676;DHT22;26359;48.750;9.314;2022-08-19T13:17:16;19.70;99.90
40676;DHT22;26359;48.750;9.314;2022-08-19T13:19:41;19.60;99.90
40676;DHT22;26359;48.750;9.314;2022-08-19T13:22:07;19.70;99.90
40676;DHT22;26359;48.750;9.314;2022-08-19T13:24:33;19.70;99.90
40676;DHT22;26359;48.750;9.314;2022-08-19T13:27:00;19.60;99.90
40676;DHT22;26359;48.750;9.314;2022-08-19T13:29:26;19.60;99.90
40676;DHT22;26359;48.750;9.314;2022-08-19T13:32:10;19.60;99.90
40676;DHT22;26359;48.750;9.314;2022-08-19T13:34:54;19.60;99.90
40676;DHT22;26359;48.750;9.314;2022-08-19T13:37:19;19.50;99.90
40676;DHT22;26359;48.750;9.314;2022-08-19T13:40:05;19.50;99.90
40676;DHT22;26359;48.750;9.314;2022-08-19T13:42:31;19.50;99.90
40676;DHT22;26359;48.750;9.314;2022-08-19T13:44:57;19.40;99.90
40676;DHT22;26359;48.750;9.314;2022-08-19T13:47:23;19.40;99.90
40676;DHT22;26359;48.750;9.314;2022-08-19T13:49:49;19.40;99.90
40676;DHT22;26359;48.750;9.314;2022-08-19T13:52:15;19.40;99.90
40676;DHT22;26359;48.750;9.314;2022-08-19T13:54:41;19.40;99.90
40676;DHT22;26359;48.750;9.314;2022-08-19T13:57:06;19.40;99.90
40676;DHT22;26359;48.750;9.314;2022-08-19T13:59:32;19.40;99.90
40676;DHT22;26359;48.750;9.314;2022-08-19T14:01:59;19.40;99.90
40676;DHT22;26359;48.750;9.314;2022-08-19T14:04:26;19.40;99.90
40676;DHT22;26359;48.750;9.314;2022-08-19T14:06:51;19.40;99.90
40676;DHT22;26359;48.750;9.314;2022-08-19T14:09:17;19.30;99.90
40676;DHT22;26359;48.750;9.314;2022-08-19T14:11:42;19.40;99.90
40676;DHT22;26359;48.750;9.314;2022-08-19T14:14:10;19.30;99.90
40676;DHT22;26359;48.750;9.314;2022-08-19T14:16:36;19.30;99.90
40676;DHT22;26359;48.750;9.314;2022-08-19T14:19:01;19.30;99.90
40676;DHT22;26359;48.750;9.314;2022-08-19T14:21:27;19.40;99.90
40676;DHT22;26359;48.750;9.314;2022-08-19T14:23:53;19.40;99.90
40676;DHT22;26359;48.750;9.314;2022-08-19T14:27:35;19.30;99.90
40676;DHT22;26359;48.750;9.314;2022-08-19T14:30:02;19.40;99.90
40676;DHT22;26359;48.750;9.314;2022-08-19T14:32:28;19.40;99.90
40676;DHT22;26359;48.750;9.314;2022-08-19T14:34:54;19.40;99.90
40676;DHT22;26359;48.750;9.314;2022-08-19T14:37:19;19.30;99.90
40676;DHT22;26359;48.750;9.314;2022-08-19T14:39:46;19.40;99.90
40676;DHT22;26359;48.750;9.314;2022-08-19T14:42:12;19.30;99.90
40676;DHT22;26359;48.750;9.314;2022-08-19T14:44:39;19.30;99.90
40676;DHT22;26359;48.750;9.314;2022-08-19T14:47:05;19.30;99.90
40676;DHT22;26359;48.750;9.314;2022-08-19T14:49:32;19.40;99.90
40676;DHT22;26359;48.750;9.314;2022-08-19T14:51:57;19.40;99.90
40676;DHT22;26359;48.750;9.314;2022-08-19T14:54:23;19.40;99.90
40676;DHT22;26359;48.750;9.314;2022-08-19T14:56:48;19.50;99.90
40676;DHT22;26359;48.750;9.314;2022-08-19T14:59:14;19.50;99.90
40676;DHT22;26359;48.750;9.314;2022-08-19T15:01:40;19.50;99.90
40676;DHT22;26359;48.750;9.314;2022-08-19T15:04:05;19.50;99.90
40676;DHT22;26359;48.750;9.314;2022-08-19T15:06:31;19.50;99.90
40676;DHT22;26359;48.750;9.314;2022-08-19T15:08:57;19.50;99.90
40676;DHT22;26359;48.750;9.314;2022-08-19T15:11:25;19.40;99.90
40676;DHT22;26359;48.750;9.314;2022-08-19T15:13:53;19.40;99.90
40676;DHT22;26359;48.750;9.314;2022-08-19T15:16:20;19.50;99.90
40676;DHT22;26359;48.750;9.314;2022-08-19T15:18:48;19.50;99.90
40676;DHT22;26359;48.750;9.314;2022-08-19T15:21:15;19.50;99.90
40676;DHT22;26359;48.750;9.314;2022-08-19T15:23:47;19.50;99.90
40676;DHT22;26359;48.750;9.314;2022-08-19T15:26:14;19.50;99.90
40676;DHT22;26359;48.750;9.314;2022-08-19T15:28:40;19.60;99.90
40676;DHT22;26359;48.750;9.314;2022-08-19T15:31:06;19.60;99.90
40676;DHT22;26359;48.750;9.314;2022-08-19T15:33:33;19.60;99.90
40676;DHT22;26359;48.750;9.314;2022-08-19T15:36:05;19.60;99.90
40676;DHT22;26359;48.750;9.314;2022-08-19T15:38:31;19.60;99.90
40676;DHT22;26359;48.750;9.314;2022-08-19T15:40:59;19.70;99.90
40676;DHT22;26359;48.750;9.314;2022-08-19T15:43:46;19.60;99.90
40676;DHT22;26359;48.750;9.314;2022-08-19T15:46:16;19.60;99.90
40676;DHT22;26359;48.750;9.314;2022-08-19T15:48:43;19.60;99.90